Aeroporto :
LOGIN :

Iscrizione | Disclaimer

   EN    FR    IT 

 










Sommario :    VFR   VFR Marginale   IFR   IFR Intensivo   IFR Molto Intensivo
Visibilità : 
Base nubi : 
>= 8 km
>= 3000ft
5 / 8 km
1000 / 3000 ft
1500m / 5 km
500 / 1000 ft
800 / 1500m
200 / 500 ft
< 800m
< 200 ft
Simboli :   Temporali  Nebbia  Neve Forte  Precipitazioni Forti  Vento > 20 kt
SIGMETs :   Varie  Temporali  Ghiacco  Turbolenza  Onda orograficha  Ceneri Vulcaniche






- Altitudine del aeroporto : 400 ft
- Codice IATA : BNX


LQBK - Banja Luka

ULTIMO METAR :
  • 281530Z 18007KT CAVOK 14/03 Q1005 WS ALL RWY NOSIG

METARs OBSOLETI :
  • 281500Z 21012KT CAVOK 14/03 Q1005 WS ALL RWY NOSIG
  • 281430Z 21015KT CAVOK 15/03 Q1005 WS ALL RWY NOSIG
  • 281400Z 21011KT CAVOK 14/03 Q1006 WS ALL RWY NOSIG
  • 281330Z 22013KT CAVOK 14/03 Q1006 WS ALL RWY NOSIG
  • 281300Z 22009KT CAVOK 14/03 Q1007 WS ALL RWY NOSIG
  • 281230Z 19010KT CAVOK 14/03 Q1007 WS ALL RWY NOSIG

TAF TAF LQBK
Valido dal 28 a 12 ore il 29 a 12 ore UTC


281100Z 2812/2912 23012KT 9999 SCT040 TX17/2814Z TN03/2906Z
TEMPO 2812/2824 23015G25KT
PROB40
TEMPO 2821/2901 33015G25KT 4000 SHRA FEW010 FEW030TCU BKN040
PROB30
TEMPO 2821/2823 33015G25KT 3000 TSRA FEW010 FEW030CB BKN040
TEMPO 2901/2909 17005KT
BECMG 2909/2911 30012KT



MetMap, La meteo Aeronautica in un colpo d'occhio ! - Copyright ORBIFLY Dicembre 2007 - Disclaimer

ORBIFLY MET'MAP TEAM :

Programmazione e sviluppo : Alexandra Zaïnal
Concezione : Baudouin d'Aumeries
Aiuto per la programmazione : Marc-Olivier Méhu
Supporto tecnico e logistico : Manuel Goepfert
Aiuto per la traduzione : Arnaldo La Scala

Contatto : metmap@orbifly.com




FONTI E CREDITI :

   NOAA